sensor_id;sensor_type;location;lat;lon;timestamp;pressure;altitude;pressure_sealevel;temperature;humidity
34328;BME280;20588;48.840;10.064;2023-02-18T00:01:12;97296.16;;;11.26;nan
34328;BME280;20588;48.840;10.064;2023-02-18T00:03:38;97292.81;;;11.25;nan
34328;BME280;20588;48.840;10.064;2023-02-18T00:06:17;97295.59;;;11.30;nan
34328;BME280;20588;48.840;10.064;2023-02-18T00:08:44;97301.13;;;11.27;nan
34328;BME280;20588;48.840;10.064;2023-02-18T00:11:11;97293.41;;;11.27;nan
34328;BME280;20588;48.840;10.064;2023-02-18T00:13:37;97287.47;;;11.27;nan
34328;BME280;20588;48.840;10.064;2023-02-18T00:16:06;97295.00;;;11.28;nan
34328;BME280;20588;48.840;10.064;2023-02-18T00:18:33;97290.63;;;11.29;nan
34328;BME280;20588;48.840;10.064;2023-02-18T00:20:59;97282.69;;;11.30;nan
34328;BME280;20588;48.840;10.064;2023-02-18T00:23:25;97283.91;;;11.28;nan
34328;BME280;20588;48.840;10.064;2023-02-18T00:26:03;97285.66;;;11.27;nan
34328;BME280;20588;48.840;10.064;2023-02-18T00:28:29;97290.84;;;11.34;nan
34328;BME280;20588;48.840;10.064;2023-02-18T00:30:56;97286.88;;;11.31;nan
34328;BME280;20588;48.840;10.064;2023-02-18T00:33:22;97277.56;;;11.30;nan
34328;BME280;20588;48.840;10.064;2023-02-18T00:35:48;97283.69;;;11.29;nan
34328;BME280;20588;48.840;10.064;2023-02-18T00:38:14;97278.56;;;11.29;nan
34328;BME280;20588;48.840;10.064;2023-02-18T00:40:41;97278.56;;;11.29;nan
34328;BME280;20588;48.840;10.064;2023-02-18T00:43:08;97271.81;;;11.28;nan
34328;BME280;20588;48.840;10.064;2023-02-18T00:45:35;97278.56;;;11.29;nan
34328;BME280;20588;48.840;10.064;2023-02-18T00:48:01;97282.13;;;11.28;nan
34328;BME280;20588;48.840;10.064;2023-02-18T00:50:27;97286.47;;;11.28;nan
34328;BME280;20588;48.840;10.064;2023-02-18T00:52:53;97289.84;;;11.28;nan
34328;BME280;20588;48.840;10.064;2023-02-18T00:55:19;97279.94;;;11.32;nan
34328;BME280;20588;48.840;10.064;2023-02-18T00:57:45;97280.53;;;11.27;nan
34328;BME280;20588;48.840;10.064;2023-02-18T01:00:11;97279.72;;;11.33;nan
34328;BME280;20588;48.840;10.064;2023-02-18T01:02:37;97274.97;;;11.30;nan
34328;BME280;20588;48.840;10.064;2023-02-18T01:05:04;97283.69;;;11.29;nan
34328;BME280;20588;48.840;10.064;2023-02-18T01:07:30;97275.59;;;11.32;nan
34328;BME280;20588;48.840;10.064;2023-02-18T01:09:56;97283.13;;;11.34;nan
34328;BME280;20588;48.840;10.064;2023-02-18T01:12:22;97274.97;;;11.30;nan
34328;BME280;20588;48.840;10.064;2023-02-18T01:14:48;97278.56;;;11.29;nan
34328;BME280;20588;48.840;10.064;2023-02-18T01:17:14;97269.25;;;11.28;nan
34328;BME280;20588;48.840;10.064;2023-02-18T01:19:40;97276.78;;;11.30;nan
34328;BME280;20588;48.840;10.064;2023-02-18T01:22:06;97282.91;;;11.29;nan
34328;BME280;20588;48.840;10.064;2023-02-18T01:24:32;97284.69;;;11.28;nan
34328;BME280;20588;48.840;10.064;2023-02-18T01:26:58;97290.44;;;11.30;nan
34328;BME280;20588;48.840;10.064;2023-02-18T01:29:24;97283.31;;;11.32;nan
34328;BME280;20588;48.840;10.064;2023-02-18T01:31:50;97282.50;;;11.32;nan
34328;BME280;20588;48.840;10.064;2023-02-18T01:34:16;97277.34;;;11.32;nan
34328;BME280;20588;48.840;10.064;2023-02-18T01:36:42;97278.97;;;11.33;nan
34328;BME280;20588;48.840;10.064;2023-02-18T01:39:08;97277.34;;;11.32;nan
34328;BME280;20588;48.840;10.064;2023-02-18T01:41:34;97270.03;;;11.35;nan
34328;BME280;20588;48.840;10.064;2023-02-18T01:44:16;97280.38;;;11.42;nan
34328;BME280;20588;48.840;10.064;2023-02-18T01:46:42;97270.63;;;11.31;nan
34328;BME280;20588;48.840;10.064;2023-02-18T01:49:11;97274.78;;;11.25;nan
34328;BME280;20588;48.840;10.064;2023-02-18T01:51:42;97271.81;;;11.28;nan
34328;BME280;20588;48.840;10.064;2023-02-18T01:54:35;97268.03;;;11.24;nan
34328;BME280;20588;48.840;10.064;2023-02-18T01:57:05;97262.69;;;11.26;nan
34328;BME280;20588;48.840;10.064;2023-02-18T01:59:55;97266.88;;;11.27;nan
34328;BME280;20588;48.840;10.064;2023-02-18T02:02:27;97269.03;;;11.23;nan
34328;BME280;20588;48.840;10.064;2023-02-18T02:04:54;97269.84;;;11.24;nan
34328;BME280;20588;48.840;10.064;2023-02-18T02:07:21;97263.88;;;11.23;nan
34328;BME280;20588;48.840;10.064;2023-02-18T02:09:50;97263.88;;;11.23;nan
34328;BME280;20588;48.840;10.064;2023-02-18T02:45:00;97225.78;;;11.12;nan
34328;BME280;20588;48.840;10.064;2023-02-18T02:53:03;97223.81;;;11.08;nan
34328;BME280;20588;48.840;10.064;2023-02-18T02:55:31;97209.16;;;11.08;nan
34328;BME280;20588;48.840;10.064;2023-02-18T02:57:57;97213.50;;;11.08;nan
34328;BME280;20588;48.840;10.064;2023-02-18T03:00:42;97198.47;;;11.11;nan
34328;BME280;20588;48.840;10.064;2023-02-18T03:03:43;97188.16;;;11.11;nan
34328;BME280;20588;48.840;10.064;2023-02-18T03:06:37;97186.59;;;11.10;nan
34328;BME280;20588;48.840;10.064;2023-02-18T03:09:31;97189.94;;;11.17;nan
34328;BME280;20588;48.840;10.064;2023-02-18T03:14:45;97198.06;;;11.14;nan
34328;BME280;20588;48.840;10.064;2023-02-18T03:17:40;97187.38;;;11.17;nan
34328;BME280;20588;48.840;10.064;2023-02-18T03:20:21;97189.94;;;11.11;nan
34328;BME280;20588;48.840;10.064;2023-02-18T03:22:50;97187.56;;;11.09;nan
34328;BME280;20588;48.840;10.064;2023-02-18T03:25:18;97184.97;;;11.09;nan
34328;BME280;20588;48.840;10.064;2023-02-18T03:27:53;97189.34;;;11.15;nan
34328;BME280;20588;48.840;10.064;2023-02-18T03:30:29;97185.81;;;11.16;nan
34328;BME280;20588;48.840;10.064;2023-02-18T03:33:04;97186.75;;;11.15;nan
34328;BME280;20588;48.840;10.064;2023-02-18T03:35:32;97187.38;;;11.17;nan
34328;BME280;20588;48.840;10.064;2023-02-18T03:38:19;97188.75;;;11.13;nan
34328;BME280;20588;48.840;10.064;2023-02-18T03:40:48;97186.38;;;11.12;nan
34328;BME280;20588;48.840;10.064;2023-02-18T03:43:15;97186.38;;;11.12;nan
34328;BME280;20588;48.840;10.064;2023-02-18T03:45:41;97191.34;;;11.13;nan
34328;BME280;20588;48.840;10.064;2023-02-18T03:48:07;97181.25;;;11.12;nan
34328;BME280;20588;48.840;10.064;2023-02-18T03:50:34;97192.50;;;11.11;nan
34328;BME280;20588;48.840;10.064;2023-02-18T03:53:00;97192.34;;;11.19;nan
34328;BME280;20588;48.840;10.064;2023-02-18T03:55:26;97189.16;;;11.17;nan
34328;BME280;20588;48.840;10.064;2023-02-18T03:57:52;97204.03;;;11.15;nan
34328;BME280;20588;48.840;10.064;2023-02-18T04:00:18;97197.06;;;11.15;nan
34328;BME280;20588;48.840;10.064;2023-02-18T04:02:45;97190.53;;;11.13;nan
34328;BME280;20588;48.840;10.064;2023-02-18T04:05:11;97188.75;;;11.13;nan
34328;BME280;20588;48.840;10.064;2023-02-18T04:07:38;97183.81;;;11.12;nan
34328;BME280;20588;48.840;10.064;2023-02-18T04:10:05;97175.50;;;11.16;nan
34328;BME280;20588;48.840;10.064;2023-02-18T04:12:31;97179.44;;;11.12;nan
34328;BME280;20588;48.840;10.064;2023-02-18T04:14:57;97181.03;;;11.13;nan
34328;BME280;20588;48.840;10.064;2023-02-18T04:17:23;97186.97;;;11.14;nan
34328;BME280;20588;48.840;10.064;2023-02-18T04:19:49;97185.41;;;11.19;nan
34328;BME280;20588;48.840;10.064;2023-02-18T04:22:15;97186.19;;;11.13;nan
34328;BME280;20588;48.840;10.064;2023-02-18T04:24:41;97185.59;;;11.11;nan
34328;BME280;20588;48.840;10.064;2023-02-18T04:27:08;97179.81;;;11.09;nan
34328;BME280;20588;48.840;10.064;2023-02-18T04:29:34;97186.19;;;11.13;nan
34328;BME280;20588;48.840;10.064;2023-02-18T04:32:00;97184.59;;;11.12;nan
34328;BME280;20588;48.840;10.064;2023-02-18T04:34:26;97180.81;;;11.08;nan
34328;BME280;20588;48.840;10.064;2023-02-18T04:36:52;97173.50;;;11.12;nan
34328;BME280;20588;48.840;10.064;2023-02-18T04:39:18;97172.31;;;11.14;nan
34328;BME280;20588;48.840;10.064;2023-02-18T04:41:44;97181.81;;;11.14;nan
34328;BME280;20588;48.840;10.064;2023-02-18T04:44:10;97166.34;;;11.14;nan
34328;BME280;20588;48.840;10.064;2023-02-18T04:46:36;97165.97;;;11.10;nan
34328;BME280;20588;48.840;10.064;2023-02-18T04:49:02;97166.94;;;11.09;nan
34328;BME280;20588;48.840;10.064;2023-02-18T04:51:28;97165.38;;;11.08;nan
34328;BME280;20588;48.840;10.064;2023-02-18T04:53:54;97165.19;;;11.10;nan
34328;BME280;20588;48.840;10.064;2023-02-18T04:56:20;97162.78;;;11.08;nan
34328;BME280;20588;48.840;10.064;2023-02-18T04:58:46;97156.66;;;11.09;nan
34328;BME280;20588;48.840;10.064;2023-02-18T05:01:12;97164.78;;;11.13;nan
34328;BME280;20588;48.840;10.064;2023-02-18T05:03:38;97173.09;;;11.08;nan
34328;BME280;20588;48.840;10.064;2023-02-18T05:06:05;97172.72;;;11.11;nan
34328;BME280;20588;48.840;10.064;2023-02-18T05:08:31;97170.75;;;11.13;nan
34328;BME280;20588;48.840;10.064;2023-02-18T05:10:57;97178.66;;;11.12;nan
34328;BME280;20588;48.840;10.064;2023-02-18T05:13:23;97185.59;;;11.11;nan
34328;BME280;20588;48.840;10.064;2023-02-18T05:15:49;97179.81;;;11.09;nan
34328;BME280;20588;48.840;10.064;2023-02-18T05:18:15;97181.41;;;11.17;nan
34328;BME280;20588;48.840;10.064;2023-02-18T05:20:42;97173.88;;;11.15;nan
34328;BME280;20588;48.840;10.064;2023-02-18T05:23:08;97181.81;;;11.14;nan
34328;BME280;20588;48.840;10.064;2023-02-18T05:25:34;97176.88;;;11.19;nan
34328;BME280;20588;48.840;10.064;2023-02-18T05:28:00;97175.09;;;11.19;nan
34328;BME280;20588;48.840;10.064;2023-02-18T05:30:26;97172.31;;;11.21;nan
34328;BME280;20588;48.840;10.064;2023-02-18T05:32:52;97177.47;;;11.27;nan
34328;BME280;20588;48.840;10.064;2023-02-18T05:35:18;97167.38;;;11.19;nan
34328;BME280;20588;48.840;10.064;2023-02-18T05:37:44;97179.66;;;11.17;nan
34328;BME280;20588;48.840;10.064;2023-02-18T05:40:11;97178.66;;;11.25;nan
34328;BME280;20588;48.840;10.064;2023-02-18T05:42:37;97179.06;;;11.28;nan
34328;BME280;20588;48.840;10.064;2023-02-18T05:45:03;97183.22;;;11.23;nan
34328;BME280;20588;48.840;10.064;2023-02-18T05:47:29;97175.47;;;11.23;nan
34328;BME280;20588;48.840;10.064;2023-02-18T05:49:55;97169.56;;;11.22;nan
34328;BME280;20588;48.840;10.064;2023-02-18T05:52:22;97173.72;;;11.23;nan
34328;BME280;20588;48.840;10.064;2023-02-18T05:54:49;97173.09;;;11.21;nan
34328;BME280;20588;48.840;10.064;2023-02-18T05:57:15;97180.06;;;11.21;nan
34328;BME280;20588;48.840;10.064;2023-02-18T05:59:42;97171.13;;;11.17;nan
34328;BME280;20588;48.840;10.064;2023-02-18T06:02:08;97179.84;;;11.16;nan
34328;BME280;20588;48.840;10.064;2023-02-18T06:04:34;97170.31;;;11.23;nan
34328;BME280;20588;48.840;10.064;2023-02-18T06:07:00;97172.13;;;11.16;nan
34328;BME280;20588;48.840;10.064;2023-02-18T06:09:26;97175.28;;;11.11;nan
34328;BME280;20588;48.840;10.064;2023-02-18T06:11:52;97172.50;;;11.06;nan
34328;BME280;20588;48.840;10.064;2023-02-18T06:14:18;97176.66;;;11.01;nan
34328;BME280;20588;48.840;10.064;2023-02-18T06:16:44;97176.25;;;10.97;nan
34328;BME280;20588;48.840;10.064;2023-02-18T06:19:10;97182.59;;;10.94;nan
34328;BME280;20588;48.840;10.064;2023-02-18T06:21:36;97182.59;;;10.94;nan
34328;BME280;20588;48.840;10.064;2023-02-18T06:24:02;97193.66;;;10.95;nan
34328;BME280;20588;48.840;10.064;2023-02-18T06:26:28;97185.19;;;11.01;nan
34328;BME280;20588;48.840;10.064;2023-02-18T06:28:55;97187.16;;;10.99;nan
34328;BME280;20588;48.840;10.064;2023-02-18T06:31:21;97190.69;;;10.98;nan
34328;BME280;20588;48.840;10.064;2023-02-18T06:33:47;97198.84;;;11.08;nan
34328;BME280;20588;48.840;10.064;2023-02-18T06:36:13;97191.91;;;11.02;nan
34328;BME280;20588;48.840;10.064;2023-02-18T06:38:41;97186.75;;;11.02;nan
34328;BME280;20588;48.840;10.064;2023-02-18T06:41:08;97183.00;;;11.05;nan
34328;BME280;20588;48.840;10.064;2023-02-18T06:43:34;97192.53;;;11.04;nan
34328;BME280;20588;48.840;10.064;2023-02-18T06:46:00;97193.28;;;11.05;nan
34328;BME280;20588;48.840;10.064;2023-02-18T06:48:27;97193.28;;;11.05;nan
34328;BME280;20588;48.840;10.064;2023-02-18T06:50:53;97192.91;;;11.08;nan
34328;BME280;20588;48.840;10.064;2023-02-18T06:53:19;97197.84;;;11.09;nan
34328;BME280;20588;48.840;10.064;2023-02-18T06:55:46;97200.03;;;11.12;nan
34328;BME280;20588;48.840;10.064;2023-02-18T06:58:12;97200.03;;;11.12;nan
34328;BME280;20588;48.840;10.064;2023-02-18T07:00:39;97195.09;;;11.11;nan
34328;BME280;20588;48.840;10.064;2023-02-18T07:03:07;97192.91;;;11.14;nan
34328;BME280;20588;48.840;10.064;2023-02-18T07:05:33;97183.03;;;11.18;nan
34328;BME280;20588;48.840;10.064;2023-02-18T07:08:00;97185.97;;;11.21;nan
34328;BME280;20588;48.840;10.064;2023-02-18T07:10:26;97183.00;;;11.24;nan
34328;BME280;20588;48.840;10.064;2023-02-18T07:12:52;97173.50;;;11.38;nan
34328;BME280;20588;48.840;10.064;2023-02-18T07:15:18;97183.00;;;11.44;nan
34328;BME280;20588;48.840;10.064;2023-02-18T07:17:49;97179.84;;;11.48;nan
34328;BME280;20588;48.840;10.064;2023-02-18T07:20:16;97167.16;;;11.53;nan
34328;BME280;20588;48.840;10.064;2023-02-18T07:22:42;97163.59;;;11.54;nan
34328;BME280;20588;48.840;10.064;2023-02-18T07:25:08;97162.59;;;11.55;nan
34328;BME280;20588;48.840;10.064;2023-02-18T07:27:34;97158.06;;;11.70;nan
34328;BME280;20588;48.840;10.064;2023-02-18T07:30:00;97163.63;;;11.67;nan
34328;BME280;20588;48.840;10.064;2023-02-18T07:32:26;97152.09;;;11.70;nan
34328;BME280;20588;48.840;10.064;2023-02-18T07:34:52;97156.84;;;11.79;nan
34328;BME280;20588;48.840;10.064;2023-02-18T07:37:21;97157.84;;;11.78;nan
34328;BME280;20588;48.840;10.064;2023-02-18T07:39:48;97139.00;;;11.84;nan
34328;BME280;20588;48.840;10.064;2023-02-18T07:42:14;97142.13;;;11.99;nan
34328;BME280;20588;48.840;10.064;2023-02-18T07:44:40;97146.88;;;12.02;nan
34328;BME280;20588;48.840;10.064;2023-02-18T07:47:07;97136.53;;;12.09;nan
34328;BME280;20588;48.840;10.064;2023-02-18T07:49:35;97149.06;;;12.05;nan
34328;BME280;20588;48.840;10.064;2023-02-18T07:52:01;97147.03;;;12.14;nan
34328;BME280;20588;48.840;10.064;2023-02-18T07:54:27;97142.47;;;12.16;nan
34328;BME280;20588;48.840;10.064;2023-02-18T07:56:53;97144.19;;;12.28;nan
34328;BME280;20588;48.840;10.064;2023-02-18T07:59:20;97135.22;;;12.37;nan
34328;BME280;20588;48.840;10.064;2023-02-18T08:01:46;97141.16;;;12.51;nan
34328;BME280;20588;48.840;10.064;2023-02-18T08:04:12;97141.88;;;12.64;nan
34328;BME280;20588;48.840;10.064;2023-02-18T08:06:43;97122.47;;;12.80;nan
34328;BME280;20588;48.840;10.064;2023-02-18T08:09:14;97133.59;;;12.87;nan
34328;BME280;20588;48.840;10.064;2023-02-18T08:11:41;97125.00;;;12.93;nan
34328;BME280;20588;48.840;10.064;2023-02-18T08:14:07;97132.09;;;13.04;nan
34328;BME280;20588;48.840;10.064;2023-02-18T08:16:34;97135.63;;;13.10;nan
34328;BME280;20588;48.840;10.064;2023-02-18T08:19:00;97139.78;;;13.11;nan
34328;BME280;20588;48.840;10.064;2023-02-18T08:21:26;97130.09;;;13.06;nan
34328;BME280;20588;48.840;10.064;2023-02-18T08:23:53;97119.19;;;12.98;nan
34328;BME280;20588;48.840;10.064;2023-02-18T08:26:19;97120.19;;;12.97;nan
34328;BME280;20588;48.840;10.064;2023-02-18T08:28:46;97130.59;;;12.90;nan
34328;BME280;20588;48.840;10.064;2023-02-18T08:31:24;97129.16;;;12.94;nan
34328;BME280;20588;48.840;10.064;2023-02-18T08:33:51;97120.38;;;12.95;nan
34328;BME280;20588;48.840;10.064;2023-02-18T08:36:17;97122.84;;;13.15;nan
34328;BME280;20588;48.840;10.064;2023-02-18T08:38:43;97116.44;;;13.24;nan
34328;BME280;20588;48.840;10.064;2023-02-18T08:41:10;97112.81;;;13.31;nan
34328;BME280;20588;48.840;10.064;2023-02-18T08:43:37;97106.94;;;13.42;nan
34328;BME280;20588;48.840;10.064;2023-02-18T08:46:03;97110.19;;;13.56;nan
34328;BME280;20588;48.840;10.064;2023-02-18T08:48:29;97103.25;;;13.74;nan
34328;BME280;20588;48.840;10.064;2023-02-18T08:50:55;97096.72;;;13.90;nan
34328;BME280;20588;48.840;10.064;2023-02-18T08:53:22;97106.63;;;13.93;nan
34328;BME280;20588;48.840;10.064;2023-02-18T08:55:48;97089.16;;;14.06;nan
34328;BME280;20588;48.840;10.064;2023-02-18T08:58:14;97087.03;;;14.33;nan
34328;BME280;20588;48.840;10.064;2023-02-18T09:00:41;97090.03;;;14.78;nan
34328;BME280;20588;48.840;10.064;2023-02-18T09:03:10;97103.50;;;15.09;nan
34328;BME280;20588;48.840;10.064;2023-02-18T09:05:38;97093.47;;;15.36;nan
34328;BME280;20588;48.840;10.064;2023-02-18T09:08:05;97099.50;;;15.59;nan
34328;BME280;20588;48.840;10.064;2023-02-18T09:10:31;97095.50;;;15.80;nan
34328;BME280;20588;48.840;10.064;2023-02-18T09:12:57;97099.78;;;15.97;nan
34328;BME280;20588;48.840;10.064;2023-02-18T09:15:23;97098.66;;;16.45;nan
34328;BME280;20588;48.840;10.064;2023-02-18T09:17:49;97093.31;;;17.12;nan
34328;BME280;20588;48.840;10.064;2023-02-18T09:20:15;97094.34;;;16.95;nan
34328;BME280;20588;48.840;10.064;2023-02-18T09:22:41;97091.91;;;16.60;nan
34328;BME280;20588;48.840;10.064;2023-02-18T09:25:07;97092.81;;;16.26;nan
34328;BME280;20588;48.840;10.064;2023-02-18T09:27:33;97084.09;;;15.92;nan
34328;BME280;20588;48.840;10.064;2023-02-18T09:30:00;97088.41;;;15.75;nan
34328;BME280;20588;48.840;10.064;2023-02-18T09:32:26;97080.09;;;15.62;nan
34328;BME280;20588;48.840;10.064;2023-02-18T09:34:52;97089.69;;;15.61;nan
34328;BME280;20588;48.840;10.064;2023-02-18T09:37:18;97082.53;;;15.91;nan
34328;BME280;20588;48.840;10.064;2023-02-18T09:39:44;97074.25;;;16.06;nan
34328;BME280;20588;48.840;10.064;2023-02-18T09:42:16;97071.25;;;16.25;nan
34328;BME280;20588;48.840;10.064;2023-02-18T09:44:45;97071.16;;;16.20;nan
34328;BME280;20588;48.840;10.064;2023-02-18T09:47:33;97073.38;;;16.28;nan
34328;BME280;20588;48.840;10.064;2023-02-18T09:50:06;97064.19;;;16.49;nan
34328;BME280;20588;48.840;10.064;2023-02-18T09:52:37;97055.53;;;16.77;nan
34328;BME280;20588;48.840;10.064;2023-02-18T09:55:18;97056.69;;;16.81;nan
34328;BME280;20588;48.840;10.064;2023-02-18T09:57:51;97041.53;;;16.61;nan
34328;BME280;20588;48.840;10.064;2023-02-18T10:03:23;97034.22;;;16.75;nan
34328;BME280;20588;48.840;10.064;2023-02-18T10:05:56;97039.78;;;17.16;nan
34328;BME280;20588;48.840;10.064;2023-02-18T10:08:26;97046.28;;;17.68;nan
34328;BME280;20588;48.840;10.064;2023-02-18T10:10:53;97048.69;;;18.18;nan
34328;BME280;20588;48.840;10.064;2023-02-18T10:13:22;97034.38;;;18.42;nan
34328;BME280;20588;48.840;10.064;2023-02-18T10:15:50;97031.81;;;19.10;nan
34328;BME280;20588;48.840;10.064;2023-02-18T10:18:29;97044.72;;;18.90;nan
34328;BME280;20588;48.840;10.064;2023-02-18T10:21:07;97051.03;;;18.68;nan
34328;BME280;20588;48.840;10.064;2023-02-18T10:23:37;97055.28;;;18.47;nan
34328;BME280;20588;48.840;10.064;2023-02-18T10:26:12;97065.78;;;18.52;nan
34328;BME280;20588;48.840;10.064;2023-02-18T10:28:39;97066.69;;;18.20;nan
34328;BME280;20588;48.840;10.064;2023-02-18T10:31:09;97071.50;;;18.54;nan
34328;BME280;20588;48.840;10.064;2023-02-18T10:34:06;97062.06;;;19.06;nan
34328;BME280;20588;48.840;10.064;2023-02-18T10:36:43;97058.34;;;19.29;nan
34328;BME280;20588;48.840;10.064;2023-02-18T10:39:21;97057.56;;;18.97;nan
34328;BME280;20588;48.840;10.064;2023-02-18T10:42:01;97059.41;;;19.28;nan
34328;BME280;20588;48.840;10.064;2023-02-18T10:49:57;97056.41;;;19.19;nan
34328;BME280;20588;48.840;10.064;2023-02-18T10:52:26;97038.66;;;19.16;nan
34328;BME280;20588;48.840;10.064;2023-02-18T10:55:07;97056.47;;;19.24;nan
34328;BME280;20588;48.840;10.064;2023-02-18T10:57:46;97052.19;;;19.08;nan
34328;BME280;20588;48.840;10.064;2023-02-18T11:00:20;97045.44;;;18.54;nan
34328;BME280;20588;48.840;10.064;2023-02-18T11:05:28;97040.47;;;17.83;nan
34328;BME280;20588;48.840;10.064;2023-02-18T11:07:56;97045.94;;;17.27;nan
34328;BME280;20588;48.840;10.064;2023-02-18T11:10:33;97059.16;;;16.59;nan
34328;BME280;20588;48.840;10.064;2023-02-18T11:13:03;97045.91;;;16.16;nan
34328;BME280;20588;48.840;10.064;2023-02-18T11:15:30;97038.59;;;16.01;nan
34328;BME280;20588;48.840;10.064;2023-02-18T11:18:10;97040.44;;;15.89;nan
34328;BME280;20588;48.840;10.064;2023-02-18T11:20:37;97030.63;;;15.91;nan
34328;BME280;20588;48.840;10.064;2023-02-18T11:23:18;97015.16;;;15.85;nan
34328;BME280;20588;48.840;10.064;2023-02-18T11:26:00;97014.97;;;15.63;nan
34328;BME280;20588;48.840;10.064;2023-02-18T11:28:41;97004.66;;;15.80;nan
34328;BME280;20588;48.840;10.064;2023-02-18T11:31:09;97001.22;;;16.02;nan
34328;BME280;20588;48.840;10.064;2023-02-18T11:33:46;96987.19;;;16.60;nan
34328;BME280;20588;48.840;10.064;2023-02-18T11:36:23;96984.75;;;16.70;nan
34328;BME280;20588;48.840;10.064;2023-02-18T11:39:00;96980.06;;;17.05;nan
34328;BME280;20588;48.840;10.064;2023-02-18T11:41:30;96981.59;;;17.22;nan
34328;BME280;20588;48.840;10.064;2023-02-18T11:43:58;96970.69;;;17.20;nan
34328;BME280;20588;48.840;10.064;2023-02-18T11:46:26;96961.66;;;16.90;nan
34328;BME280;20588;48.840;10.064;2023-02-18T11:48:53;96969.28;;;16.80;nan
34328;BME280;20588;48.840;10.064;2023-02-18T11:54:04;96972.59;;;16.59;nan
34328;BME280;20588;48.840;10.064;2023-02-18T11:56:34;96978.69;;;16.36;nan
34328;BME280;20588;48.840;10.064;2023-02-18T11:59:02;96959.91;;;16.01;nan
34328;BME280;20588;48.840;10.064;2023-02-18T12:02:00;96956.44;;;15.95;nan
34328;BME280;20588;48.840;10.064;2023-02-18T12:04:49;96963.84;;;15.75;nan
34328;BME280;20588;48.840;10.064;2023-02-18T12:07:20;96958.13;;;15.62;nan
34328;BME280;20588;48.840;10.064;2023-02-18T12:09:55;96965.97;;;15.50;nan
34328;BME280;20588;48.840;10.064;2023-02-18T12:15:13;96958.53;;;15.31;nan
34328;BME280;20588;48.840;10.064;2023-02-18T12:23:17;96953.78;;;15.79;nan
34328;BME280;20588;48.840;10.064;2023-02-18T12:26:04;96953.41;;;16.15;nan
34328;BME280;20588;48.840;10.064;2023-02-18T12:34:41;96952.91;;;16.30;nan
34328;BME280;20588;48.840;10.064;2023-02-18T12:37:28;96949.09;;;16.20;nan
34328;BME280;20588;48.840;10.064;2023-02-18T12:43:05;96941.91;;;16.11;nan
34328;BME280;20588;48.840;10.064;2023-02-18T12:45:55;96932.06;;;16.13;nan
34328;BME280;20588;48.840;10.064;2023-02-18T13:05:43;96927.16;;;18.07;nan
34328;BME280;20588;48.840;10.064;2023-02-18T13:13:36;96924.78;;;18.01;nan
34328;BME280;20588;48.840;10.064;2023-02-18T13:16:09;96935.53;;;17.82;nan
34328;BME280;20588;48.840;10.064;2023-02-18T13:21:27;96945.44;;;17.21;nan
34328;BME280;20588;48.840;10.064;2023-02-18T13:24:12;96939.06;;;16.90;nan
34328;BME280;20588;48.840;10.064;2023-02-18T13:26:41;96942.13;;;16.54;nan
34328;BME280;20588;48.840;10.064;2023-02-18T13:29:40;96939.72;;;16.19;nan
34328;BME280;20588;48.840;10.064;2023-02-18T13:32:37;96947.31;;;15.93;nan
34328;BME280;20588;48.840;10.064;2023-02-18T13:35:18;96942.63;;;15.78;nan
34328;BME280;20588;48.840;10.064;2023-02-18T13:38:11;96940.06;;;15.67;nan
34328;BME280;20588;48.840;10.064;2023-02-18T13:40:42;96931.41;;;15.61;nan
34328;BME280;20588;48.840;10.064;2023-02-18T13:43:28;96922.03;;;15.60;nan
34328;BME280;20588;48.840;10.064;2023-02-18T13:46:22;96922.09;;;15.49;nan
34328;BME280;20588;48.840;10.064;2023-02-18T13:51:41;96923.81;;;15.71;nan
34328;BME280;20588;48.840;10.064;2023-02-18T13:56:51;96924.41;;;15.62;nan
34328;BME280;20588;48.840;10.064;2023-02-18T13:59:41;96916.94;;;15.93;nan
34328;BME280;20588;48.840;10.064;2023-02-18T14:04:53;96900.28;;;16.22;nan
34328;BME280;20588;48.840;10.064;2023-02-18T14:10:03;96910.31;;;16.31;nan
34328;BME280;20588;48.840;10.064;2023-02-18T14:12:40;96916.59;;;16.35;nan
34328;BME280;20588;48.840;10.064;2023-02-18T14:26:00;96914.22;;;16.16;nan
34328;BME280;20588;48.840;10.064;2023-02-18T14:36:41;96899.47;;;15.89;nan
34328;BME280;20588;48.840;10.064;2023-02-18T14:39:36;96904.34;;;15.85;nan
34328;BME280;20588;48.840;10.064;2023-02-18T14:50:41;96884.09;;;15.71;nan
34328;BME280;20588;48.840;10.064;2023-02-18T14:53:12;96883.56;;;15.69;nan
34328;BME280;20588;48.840;10.064;2023-02-18T14:55:45;96875.94;;;15.79;nan
34328;BME280;20588;48.840;10.064;2023-02-18T14:58:29;96883.50;;;15.80;nan
34328;BME280;20588;48.840;10.064;2023-02-18T15:00:57;96873.50;;;15.89;nan
34328;BME280;20588;48.840;10.064;2023-02-18T15:03:30;96874.69;;;15.98;nan
34328;BME280;20588;48.840;10.064;2023-02-18T15:05:56;96881.00;;;16.02;nan
34328;BME280;20588;48.840;10.064;2023-02-18T15:08:24;96887.72;;;16.14;nan
34328;BME280;20588;48.840;10.064;2023-02-18T15:13:39;96889.44;;;16.09;nan
34328;BME280;20588;48.840;10.064;2023-02-18T15:16:13;96898.84;;;15.98;nan
34328;BME280;20588;48.840;10.064;2023-02-18T15:18:43;96885.25;;;15.91;nan
34328;BME280;20588;48.840;10.064;2023-02-18T15:21:39;96884.81;;;15.83;nan
34328;BME280;20588;48.840;10.064;2023-02-18T15:24:08;96891.03;;;15.82;nan
34328;BME280;20588;48.840;10.064;2023-02-18T15:26:45;96897.50;;;15.79;nan
34328;BME280;20588;48.840;10.064;2023-02-18T15:29:25;96891.63;;;15.72;nan
34328;BME280;20588;48.840;10.064;2023-02-18T15:31:52;96892.66;;;15.71;nan
34328;BME280;20588;48.840;10.064;2023-02-18T15:34:37;96885.59;;;15.67;nan
34328;BME280;20588;48.840;10.064;2023-02-18T15:37:06;96893.03;;;15.63;nan
34328;BME280;20588;48.840;10.064;2023-02-18T15:39:34;96896.03;;;15.55;nan
34328;BME280;20588;48.840;10.064;2023-02-18T15:42:27;96892.72;;;15.20;nan
34328;BME280;20588;48.840;10.064;2023-02-18T15:45:02;96901.97;;;15.05;nan